Time;durP1;ratioP1;P1;durP2;ratioP2;P2;SDS_P1;SDS_P2;PMS_P1;PMS_P2;Temp;Humidity;BMP_temperature;BMP_pressure;BME280_temperature;BME280_humidity;BME280_pressure;Samples;Min_cycle;Max_cycle;Signal;HPM_P1;HPM_P2
2023/07/26 00:00:31;;;;;;;7.65;5.38;;;;;;;10.76;100.00;92726.38;2107750;28;20024;-81
2023/07/26 00:01:32;;;;;;;5.65;5.10;;;;;;;10.72;100.00;92716.94;2090533;28;20024;-81
2023/07/26 00:02:33;;;;;;;6.05;5.22;;;;;;;10.68;100.00;92727.00;2089220;28;20025;-81
2023/07/26 00:03:34;;;;;;;5.10;4.50;;;;;;;10.80;100.00;92716.31;2100060;28;20077;-81
2023/07/26 00:04:35;;;;;;;6.70;4.90;;;;;;;10.67;100.00;92718.22;2099966;28;20078;-81
2023/07/26 00:05:36;;;;;;;5.40;4.70;;;;;;;10.73;100.00;92707.75;2099538;28;20094;-81
2023/07/26 00:06:37;;;;;;;7.65;5.28;;;;;;;10.68;100.00;92710.97;2102801;28;20024;-80
2023/07/26 00:07:38;;;;;;;5.32;4.65;;;;;;;10.63;100.00;92714.16;2103339;28;20055;-82
2023/07/26 00:08:39;;;;;;;6.90;5.03;;;;;;;10.61;100.00;92703.88;2093046;28;20036;-80
2023/07/26 00:09:40;;;;;;;7.38;5.43;;;;;;;10.62;100.00;92704.63;2090091;28;20122;-82
2023/07/26 00:10:46;;;;;;;5.65;4.70;;;;;;;10.72;100.00;92707.00;2105808;28;20028;-81
2023/07/26 00:11:47;;;;;;;5.45;4.85;;;;;;;10.69;100.00;92707.84;2108514;28;20023;-80
2023/07/26 00:12:48;;;;;;;5.20;4.65;;;;;;;10.68;100.00;92710.97;2114255;28;20020;-81
2023/07/26 00:13:50;;;;;;;4.93;4.43;;;;;;;10.81;100.00;92712.47;2099350;28;20400;-81
2023/07/26 00:14:51;;;;;;;6.20;4.70;;;;;;;10.83;100.00;92717.38;2098640;28;20028;-79
2023/07/26 00:15:52;;;;;;;7.45;4.95;;;;;;;10.86;100.00;92708.50;2098293;28;20134;-78
2023/07/26 00:16:53;;;;;;;6.45;4.95;;;;;;;10.89;100.00;92712.25;2108670;28;20069;-79
2023/07/26 00:17:54;;;;;;;6.22;4.75;;;;;;;10.77;100.00;92725.19;2098092;28;20029;-81
2023/07/26 00:18:55;;;;;;;6.45;4.80;;;;;;;10.69;100.00;92710.53;2087990;28;20021;-81
2023/07/26 00:19:56;;;;;;;9.23;4.60;;;;;;;10.61;100.00;92716.50;2091157;28;20035;-83
2023/07/26 00:20:57;;;;;;;5.00;4.53;;;;;;;10.66;100.00;92713.28;2098016;28;20098;-79
2023/07/26 00:21:58;;;;;;;7.45;5.15;;;;;;;10.59;100.00;92717.69;2088105;28;20466;-79
2023/07/26 00:22:59;;;;;;;7.00;5.05;;;;;;;10.64;100.00;92715.66;2089881;28;20040;-80
2023/07/26 00:24:00;;;;;;;5.43;4.72;;;;;;;10.61;100.00;92711.16;2109893;28;20072;-80
2023/07/26 00:25:01;;;;;;;9.45;5.53;;;;;;;10.47;100.00;92707.72;2101156;28;20162;-83
2023/07/26 00:26:02;;;;;;;6.55;4.78;;;;;;;10.50;100.00;92711.47;2097078;28;20052;-81
2023/07/26 00:27:04;;;;;;;6.30;4.95;;;;;;;10.53;100.00;92716.69;2097142;28;20560;-81
2023/07/26 00:28:05;;;;;;;5.53;5.03;;;;;;;10.41;100.00;92722.03;2100679;28;20504;-81
2023/07/26 00:29:06;;;;;;;10.20;5.50;;;;;;;10.41;100.00;92716.69;2098863;28;20078;-81
2023/07/26 00:30:07;;;;;;;8.05;5.05;;;;;;;10.32;100.00;92718.03;2097486;28;20445;-80
2023/07/26 00:31:08;;;;;;;7.32;4.88;;;;;;;10.34;100.00;92721.03;2097810;28;20028;-81
2023/07/26 00:32:09;;;;;;;7.68;4.95;;;;;;;10.42;100.00;92721.59;2101680;28;20020;-80
2023/07/26 00:33:10;;;;;;;6.43;5.10;;;;;;;10.24;100.00;92722.06;2105571;28;20055;-79
2023/07/26 00:34:11;;;;;;;4.78;4.22;;;;;;;10.33;100.00;92722.22;2106001;28;20019;-81
2023/07/26 00:35:24;;;;;;;8.55;4.93;;;;;;;10.36;100.00;92722.53;2105165;28;20055;-80
2023/07/26 00:36:27;;;;;;;6.20;4.60;;;;;;;10.31;100.00;92721.13;2090993;28;20811;-79
2023/07/26 00:37:28;;;;;;;6.25;4.80;;;;;;;10.41;100.00;92722.03;2084525;28;20057;-82
2023/07/26 00:38:29;;;;;;;6.97;4.88;;;;;;;10.38;100.00;92723.59;2089060;28;20033;-80
2023/07/26 00:39:30;;;;;;;4.95;4.38;;;;;;;10.43;100.00;92725.00;2081575;28;20103;-79
2023/07/26 00:40:31;;;;;;;9.75;4.60;;;;;;;10.41;100.00;92722.03;2077537;28;20029;-81
2023/07/26 00:41:32;;;;;;;6.95;4.68;;;;;;;10.40;100.00;92715.91;2098092;28;20032;-79
2023/07/26 00:42:33;;;;;;;5.97;4.78;;;;;;;10.43;100.00;92717.75;2105324;28;20043;-79
2023/07/26 00:43:34;;;;;;;5.75;4.22;;;;;;;10.53;100.00;92721.28;2105512;28;20027;-79
2023/07/26 00:44:35;;;;;;;7.93;4.47;;;;;;;10.48;100.00;92724.47;2103061;28;20020;-79
2023/07/26 00:45:39;;;;;;;5.80;4.63;;;;;;;10.45;100.00;92722.69;2094881;28;20017;-81
2023/07/26 00:46:40;;;;;;;5.03;4.53;;;;;;;10.72;100.00;92724.97;2105994;28;20024;-82
2023/07/26 00:47:41;;;;;;;5.32;4.28;;;;;;;10.54;100.00;92720.88;2105745;28;20024;-80
2023/07/26 00:48:43;;;;;;;5.50;4.50;;;;;;;10.40;100.00;92725.84;2089321;28;20021;-79
2023/07/26 00:49:44;;;;;;;7.18;4.20;;;;;;;10.35;100.00;92729.78;2097777;28;20016;-81
2023/07/26 00:50:47;;;;;;;4.97;4.43;;;;;;;10.48;100.00;92716.47;2093412;28;20481;-79
2023/07/26 00:51:47;;;;;;;6.30;4.70;;;;;;;10.51;100.00;92724.41;2096770;28;20089;-80
2023/07/26 00:52:49;;;;;;;6.68;4.45;;;;;;;10.47;100.00;92726.41;2097955;28;20087;-81
2023/07/26 00:53:50;;;;;;;5.78;4.38;;;;;;;10.48;100.00;92729.81;2102023;28;20375;-79
2023/07/26 00:54:55;;;;;;;11.43;4.53;;;;;;;10.57;100.00;92725.34;2097212;28;20193;-82
2023/07/26 00:55:56;;;;;;;6.65;4.18;;;;;;;10.45;100.00;92725.34;2105577;28;20032;-81
2023/07/26 00:56:57;;;;;;;5.82;3.92;;;;;;;10.37;100.00;92724.78;2103132;28;23360;-82
2023/07/26 00:57:59;;;;;;;5.20;4.03;;;;;;;10.41;100.00;92736.13;2089675;28;20036;-82
2023/07/26 00:59:01;;;;;;;7.70;3.90;;;;;;;10.30;100.00;92735.66;2095374;28;20074;-82
2023/07/26 01:00:02;;;;;;;9.93;4.63;;;;;;;10.36;100.00;92738.56;2089719;28;20025;-83
2023/07/26 01:01:03;;;;;;;6.28;4.90;;;;;;;10.36;100.00;92739.31;2097832;28;20024;-78
2023/07/26 01:02:04;;;;;;;4.80;4.30;;;;;;;10.37;100.00;92737.41;2091280;28;20532;-83
2023/07/26 01:03:05;;;;;;;9.48;5.05;;;;;;;10.38;100.00;92736.22;2089106;28;20021;-82
2023/07/26 01:04:06;;;;;;;6.35;4.30;;;;;;;10.42;100.00;92729.59;2090703;28;20021;-81
2023/07/26 01:05:08;;;;;;;7.10;4.50;;;;;;;10.39;100.00;92733.13;2098764;28;20440;-82
2023/07/26 01:06:32;;;;;;;4.35;4.05;;;;;;;10.53;100.00;92738.06;2101987;28;20020;-80
2023/07/26 01:08:06;;;;;;;5.50;4.07;;;;;;;10.45;100.00;92736.03;2088907;28;20571;-79
2023/07/26 01:09:13;;;;;;;6.65;4.03;;;;;;;10.72;100.00;92738.34;2097123;28;20118;-80
2023/07/26 01:10:24;;;;;;;5.75;4.03;;;;;;;10.68;100.00;92735.00;2097130;28;20088;-80
2023/07/26 01:11:39;;;;;;;4.65;3.72;;;;;;;10.72;100.00;92738.34;2097597;28;20020;-78
2023/07/26 01:12:47;;;;;;;6.47;3.92;;;;;;;10.74;100.00;92735.97;2089628;28;20071;-79
2023/07/26 01:13:54;;;;;;;4.18;3.80;;;;;;;10.79;100.00;92744.22;2094459;28;20020;-78
2023/07/26 01:15:02;;;;;;;6.28;4.50;;;;;;;10.59;100.00;92738.31;2106068;28;20016;-83
2023/07/26 01:16:03;;;;;;;4.93;4.00;;;;;;;10.71;100.00;92747.50;2102461;28;20039;-80
2023/07/26 01:17:04;;;;;;;6.55;3.67;;;;;;;10.66;100.00;92740.78;2092743;28;20027;-81
2023/07/26 01:18:13;;;;;;;7.82;4.13;;;;;;;10.62;100.00;92742.03;2097605;28;20024;-80
2023/07/26 01:19:14;;;;;;;7.00;4.18;;;;;;;10.55;100.00;92743.75;2097947;28;20028;-80
2023/07/26 01:20:15;;;;;;;4.57;4.18;;;;;;;10.43;100.00;92744.47;2102962;28;20028;-81
2023/07/26 01:21:16;;;;;;;4.38;3.85;;;;;;;10.40;100.00;92747.97;2105801;28;20067;-80
2023/07/26 01:22:17;;;;;;;5.88;4.43;;;;;;;10.33;100.00;92748.19;2112325;28;20047;-80
2023/07/26 01:23:18;;;;;;;4.78;4.30;;;;;;;10.33;100.00;92738.25;2113812;28;20024;-81
2023/07/26 01:24:19;;;;;;;4.60;4.30;;;;;;;10.40;100.00;92744.56;2106905;28;20055;-82
2023/07/26 01:25:20;;;;;;;4.43;4.00;;;;;;;10.54;100.00;92750.28;2103322;28;20033;-81
2023/07/26 01:26:22;;;;;;;7.03;4.47;;;;;;;10.52;100.00;92749.94;2101620;28;20500;-82
2023/07/26 01:27:23;;;;;;;5.47;3.90;;;;;;;10.49;100.00;92742.78;2103969;28;20114;-82
2023/07/26 01:28:24;;;;;;;4.53;4.10;;;;;;;10.46;100.00;92737.53;2113069;28;20026;-82
2023/07/26 01:29:25;;;;;;;4.68;4.00;;;;;;;10.41;100.00;92744.16;2106918;28;20077;-79
2023/07/26 01:30:31;;;;;;;4.50;3.65;;;;;;;10.38;100.00;92750.31;2109790;28;20112;-81
2023/07/26 01:31:32;;;;;;;5.03;4.05;;;;;;;10.34;100.00;92742.41;2091562;28;20028;-80
2023/07/26 01:32:35;;;;;;;5.38;3.72;;;;;;;10.33;100.00;92746.25;2096484;28;20024;-82
2023/07/26 01:33:37;;;;;;;6.00;3.63;;;;;;;10.32;100.00;92747.44;2097055;28;20039;-82
2023/07/26 01:34:38;;;;;;;6.43;3.60;;;;;;;10.31;100.00;92747.84;2089761;28;20029;-81
2023/07/26 01:35:40;;;;;;;4.75;3.15;;;;;;;10.22;100.00;92745.75;2099405;28;20044;-81
2023/07/26 01:36:41;;;;;;;8.75;3.72;;;;;;;10.20;100.00;92753.44;2089544;28;20060;-80
2023/07/26 01:37:42;;;;;;;3.63;3.25;;;;;;;10.29;100.00;92745.59;2088888;28;20056;-83
2023/07/26 01:38:45;;;;;;;4.63;3.63;;;;;;;10.41;100.00;92754.09;2089619;28;20448;-85
2023/07/26 01:39:47;;;;;;;4.60;3.65;;;;;;;10.24;100.00;92745.34;2097811;28;20028;-82
2023/07/26 01:40:49;;;;;;;4.88;3.28;;;;;;;10.15;100.00;92745.19;2097632;28;20596;-81
2023/07/26 01:41:50;;;;;;;6.18;3.53;;;;;;;10.12;100.00;92741.44;2097045;28;20028;-82
2023/07/26 01:42:52;;;;;;;3.35;3.13;;;;;;;10.17;100.00;92751.59;2089027;28;20035;-84
2023/07/26 01:43:54;;;;;;;4.97;3.45;;;;;;;10.07;100.00;92753.38;2105602;28;20028;-84
2023/07/26 01:44:55;;;;;;;3.53;3.17;;;;;;;10.21;100.00;92743.50;2107383;28;20100;-82
2023/07/26 01:45:56;;;;;;;4.68;3.50;;;;;;;10.18;100.00;92747.00;2101333;28;20481;-82
2023/07/26 01:46:56;;;;;;;3.30;3.05;;;;;;;10.20;100.00;92747.34;2107912;28;20361;-80
2023/07/26 01:47:58;;;;;;;3.53;3.22;;;;;;;10.07;100.00;92758.72;2105735;28;20036;-82
2023/07/26 01:48:59;;;;;;;5.85;3.03;;;;;;;10.15;100.00;92747.88;2094170;28;20361;-83
2023/07/26 01:50:01;;;;;;;3.85;3.30;;;;;;;10.09;100.00;92758.31;2097140;28;20032;-83
2023/07/26 01:51:02;;;;;;;4.10;3.08;;;;;;;10.09;100.00;92759.03;2105131;28;20043;-81
2023/07/26 01:52:03;;;;;;;7.78;3.20;;;;;;;10.00;100.00;92758.16;2101223;28;20024;-83
2023/07/26 01:53:04;;;;;;;5.82;3.90;;;;;;;9.99;100.00;92757.41;2105679;28;20070;-80
2023/07/26 01:54:08;;;;;;;6.25;3.20;;;;;;;9.91;100.00;92758.00;2109520;28;20062;-83
2023/07/26 01:55:09;;;;;;;5.68;3.55;;;;;;;9.91;100.00;92758.75;2098525;28;20024;-82
2023/07/26 01:56:10;;;;;;;5.90;3.35;;;;;;;9.84;100.00;92759.69;2089080;28;20021;-83
2023/07/26 01:57:10;;;;;;;3.90;3.45;;;;;;;9.93;100.00;92761.03;2101875;28;20028;-83
2023/07/26 01:58:11;;;;;;;3.45;3.15;;;;;;;9.84;100.00;92761.63;2114246;28;20042;-82
2023/07/26 01:59:12;;;;;;;3.60;3.30;;;;;;;9.84;100.00;92758.94;2093193;28;20052;-81
2023/07/26 02:00:13;;;;;;;3.50;3.20;;;;;;;9.86;100.00;92761.94;2080320;28;20485;-81
2023/07/26 02:01:15;;;;;;;4.80;3.97;;;;;;;9.83;100.00;92758.19;2097711;28;20043;-82
2023/07/26 02:02:16;;;;;;;6.20;3.25;;;;;;;9.77;100.00;92761.78;2105377;28;20047;-82
2023/07/26 02:03:17;;;;;;;3.88;3.08;;;;;;;9.80;100.00;92769.72;2104794;28;20024;-83
2023/07/26 02:04:19;;;;;;;3.88;3.33;;;;;;;9.77;100.00;92762.53;2102025;28;20024;-82
2023/07/26 02:05:20;;;;;;;3.67;3.38;;;;;;;9.71;100.00;92760.78;2092863;28;20025;-81
2023/07/26 02:06:21;;;;;;;5.78;3.60;;;;;;;9.69;100.00;92753.19;2097405;28;20032;-82
2023/07/26 02:07:22;;;;;;;5.57;3.50;;;;;;;9.74;100.00;92755.34;2092230;28;20017;-80
2023/07/26 02:08:23;;;;;;;5.53;3.15;;;;;;;9.85;100.00;92760.44;2088451;28;20032;-81
2023/07/26 02:09:24;;;;;;;3.40;2.92;;;;;;;9.78;100.00;92765.94;2105785;28;20072;-82
2023/07/26 02:10:25;;;;;;;3.92;3.45;;;;;;;9.78;100.00;92769.34;2104845;28;20132;-81
2023/07/26 02:11:26;;;;;;;4.65;3.20;;;;;;;9.72;100.00;92764.97;2114235;28;20068;-83
2023/07/26 02:12:27;;;;;;;6.78;3.55;;;;;;;9.65;100.00;92765.88;2112317;28;20015;-81
2023/07/26 02:13:28;;;;;;;4.10;3.42;;;;;;;9.69;100.00;92771.88;2090208;28;20031;-82
2023/07/26 02:14:29;;;;;;;3.97;2.90;;;;;;;9.66;100.00;92769.28;2097427;28;20077;-81
2023/07/26 02:15:31;;;;;;;4.97;3.58;;;;;;;9.70;100.00;92765.38;2100105;28;20028;-83
2023/07/26 02:16:32;;;;;;;3.97;3.40;;;;;;;9.62;100.00;92772.06;2103275;28;20107;-83
2023/07/26 02:17:33;;;;;;;4.28;3.45;;;;;;;9.68;100.00;92766.97;2090133;28;20036;-81
2023/07/26 02:18:34;;;;;;;5.72;3.42;;;;;;;9.75;100.00;92774.81;2082966;28;20026;-81
2023/07/26 02:19:35;;;;;;;4.03;3.63;;;;;;;9.70;100.00;92769.94;2098966;28;20711;-83
2023/07/26 02:20:36;;;;;;;3.53;3.13;;;;;;;9.64;100.00;92774.28;2094997;28;20043;-80
2023/07/26 02:21:37;;;;;;;5.47;3.38;;;;;;;9.99;100.00;92773.44;2106401;28;20051;-83
2023/07/26 02:22:38;;;;;;;3.55;3.25;;;;;;;9.93;100.00;92777.78;2096969;28;20520;-83
2023/07/26 02:23:39;;;;;;;6.22;3.55;;;;;;;9.89;100.00;92771.03;2096813;28;20040;-84
2023/07/26 02:24:40;;;;;;;10.32;3.50;;;;;;;9.83;100.00;92771.53;2097263;28;20047;-81
2023/07/26 02:25:40;;;;;;;4.40;3.35;;;;;;;9.83;100.00;92776.88;2096756;28;20481;-83
2023/07/26 02:26:41;;;;;;;4.00;3.30;;;;;;;9.67;100.00;92768.88;2103840;28;20072;-80
2023/07/26 02:27:42;;;;;;;3.88;3.40;;;;;;;9.78;100.00;92773.94;2113984;28;20080;-83
2023/07/26 02:28:43;;;;;;;4.70;3.72;;;;;;;9.71;100.00;92774.88;2108664;28;20103;-81
2023/07/26 02:29:44;;;;;;;5.03;3.40;;;;;;;9.58;100.00;92766.81;2097623;28;20103;-83
2023/07/26 02:30:45;;;;;;;5.25;3.97;;;;;;;9.51;100.00;92768.88;2105831;28;20028;-81
2023/07/26 02:31:47;;;;;;;4.30;3.90;;;;;;;9.50;100.00;92767.38;2105733;28;20028;-81
2023/07/26 02:32:48;;;;;;;3.60;3.30;;;;;;;9.57;100.00;92775.22;2113869;28;20024;-82
2023/07/26 02:33:49;;;;;;;3.75;3.45;;;;;;;9.66;100.00;92779.94;2113736;28;20020;-81
2023/07/26 02:34:50;;;;;;;5.18;3.40;;;;;;;9.53;100.00;92787.91;2097191;28;20067;-81
2023/07/26 02:35:51;;;;;;;6.25;3.20;;;;;;;9.44;100.00;92777.03;2096103;28;20020;-82
2023/07/26 02:36:51;;;;;;;4.43;3.72;;;;;;;9.39;100.00;92772.19;2113070;28;20043;-82
2023/07/26 02:37:52;;;;;;;5.07;3.30;;;;;;;9.59;100.00;92778.97;2105257;28;20089;-81
2023/07/26 02:38:53;;;;;;;6.57;3.47;;;;;;;9.66;100.00;92771.94;2093152;28;20024;-82
2023/07/26 02:39:54;;;;;;;4.15;3.75;;;;;;;9.53;100.00;92771.88;2097186;28;20397;-81
2023/07/26 02:40:55;;;;;;;5.18;3.55;;;;;;;9.67;100.00;92776.88;2104966;28;20192;-80
2023/07/26 02:41:56;;;;;;;5.13;3.75;;;;;;;9.55;100.00;92775.63;2107411;28;20034;-81
2023/07/26 02:42:57;;;;;;;4.72;3.50;;;;;;;9.51;100.00;92782.97;2105088;28;20119;-81
2023/07/26 02:43:58;;;;;;;4.10;3.28;;;;;;;9.51;100.00;92785.63;2096737;28;20016;-84
2023/07/26 02:44:59;;;;;;;4.00;3.60;;;;;;;9.53;100.00;92777.22;2093999;28;20024;-82
2023/07/26 02:46:00;;;;;;;4.75;3.88;;;;;;;9.29;100.00;92789.94;2092971;28;20119;-83
2023/07/26 02:47:01;;;;;;;4.15;3.78;;;;;;;9.26;100.00;92790.78;2091511;28;20112;-82
2023/07/26 02:48:03;;;;;;;4.30;3.60;;;;;;;9.15;100.00;92787.59;2097027;28;20057;-82
2023/07/26 02:49:04;;;;;;;4.43;3.20;;;;;;;9.14;100.00;92780.78;2111483;28;20024;-81
2023/07/26 02:50:05;;;;;;;3.58;3.28;;;;;;;9.21;100.00;92792.00;2113221;28;20404;-81
2023/07/26 02:51:06;;;;;;;4.55;3.58;;;;;;;9.27;100.00;92782.38;2113876;28;20028;-81
2023/07/26 02:52:07;;;;;;;5.05;3.72;;;;;;;9.22;100.00;92784.75;2098393;28;20056;-81
2023/07/26 02:53:08;;;;;;;4.10;3.70;;;;;;;9.31;100.00;92783.03;2097070;28;20130;-84
2023/07/26 02:54:09;;;;;;;5.95;3.92;;;;;;;9.30;100.00;92786.09;2112199;28;20113;-80
2023/07/26 02:55:10;;;;;;;3.95;3.65;;;;;;;9.29;100.00;92787.28;2104872;28;20071;-81
2023/07/26 02:56:10;;;;;;;6.70;3.72;;;;;;;9.20;100.00;92795.84;2092597;28;20040;-81
2023/07/26 02:57:11;;;;;;;7.60;3.70;;;;;;;9.27;100.00;92785.03;2095881;28;20020;-82
2023/07/26 02:58:13;;;;;;;6.30;3.20;;;;;;;9.45;100.00;92791.91;2096950;28;20111;-81
2023/07/26 02:59:14;;;;;;;5.05;3.70;;;;;;;9.40;100.00;92795.81;2104203;28;20023;-81
2023/07/26 03:00:15;;;;;;;7.57;3.53;;;;;;;9.41;100.00;92799.97;2111345;28;20047;-81
2023/07/26 03:01:16;;;;;;;3.38;3.08;;;;;;;9.35;100.00;92793.63;2105459;28;20483;-81
2023/07/26 03:02:17;;;;;;;3.75;3.10;;;;;;;9.46;100.00;92806.72;2096508;28;20024;-79
2023/07/26 03:03:18;;;;;;;4.35;3.03;;;;;;;9.60;100.00;92801.06;2101137;28;20028;-80
2023/07/26 03:04:19;;;;;;;3.45;2.88;;;;;;;9.66;100.00;92804.75;2106030;28;20066;-80
2023/07/26 03:05:20;;;;;;;6.25;3.30;;;;;;;9.71;100.00;92808.84;2099386;28;20035;-79
2023/07/26 03:06:21;;;;;;;3.05;2.80;;;;;;;9.60;100.00;92809.06;2092204;28;20021;-80
2023/07/26 03:07:22;;;;;;;3.13;2.75;;;;;;;9.54;100.00;92805.41;2094038;28;20470;-80
2023/07/26 03:08:22;;;;;;;3.42;3.13;;;;;;;9.47;100.00;92806.31;2104820;28;20389;-82
2023/07/26 03:09:23;;;;;;;3.90;3.13;;;;;;;9.44;100.00;92812.50;2092907;28;20083;-80
2023/07/26 03:10:24;;;;;;;4.60;3.15;;;;;;;9.39;100.00;92814.88;2099971;28;20067;-79
2023/07/26 03:11:25;;;;;;;6.43;3.42;;;;;;;9.35;100.00;92820.31;2113793;28;20480;-80
2023/07/26 03:12:26;;;;;;;3.50;3.20;;;;;;;9.39;100.00;92812.97;2113189;28;20058;-82
2023/07/26 03:13:27;;;;;;;6.53;3.45;;;;;;;9.43;100.00;92818.97;2108300;28;20016;-79
2023/07/26 03:14:28;;;;;;;5.18;3.65;;;;;;;9.47;100.00;92816.22;2105267;28;20058;-82
2023/07/26 03:15:30;;;;;;;6.10;3.65;;;;;;;9.47;100.00;92819.63;2104742;28;20032;-81
2023/07/26 03:16:31;;;;;;;4.78;3.60;;;;;;;9.49;100.00;92814.66;2101162;28;20025;-80
2023/07/26 03:17:32;;;;;;;3.88;3.58;;;;;;;9.49;100.00;92813.91;2097865;28;20156;-80
2023/07/26 03:18:33;;;;;;;3.88;3.50;;;;;;;9.52;100.00;92813.06;2105020;28;20487;-81
2023/07/26 03:19:34;;;;;;;6.70;3.20;;;;;;;9.52;100.00;92813.81;2105447;28;20028;-81
2023/07/26 03:20:35;;;;;;;3.50;3.17;;;;;;;9.61;100.00;92812.47;2092893;28;20025;-82
2023/07/26 03:21:36;;;;;;;5.43;3.58;;;;;;;9.58;100.00;92816.75;2096819;28;20429;-80
2023/07/26 03:22:37;;;;;;;5.65;3.03;;;;;;;9.56;100.00;92813.72;2108355;28;20051;-81
2023/07/26 03:23:38;;;;;;;6.70;3.40;;;;;;;9.54;100.00;92808.06;2109684;28;20531;-80
2023/07/26 03:24:39;;;;;;;3.58;3.28;;;;;;;9.56;100.00;92816.41;2122182;27;20037;-82
2023/07/26 03:25:41;;;;;;;5.70;3.30;;;;;;;9.53;100.00;92817.25;2111562;28;20031;-81
2023/07/26 03:26:42;;;;;;;4.68;3.38;;;;;;;9.54;100.00;92819.50;2092466;28;20139;-81
2023/07/26 03:27:43;;;;;;;3.65;3.22;;;;;;;9.56;100.00;92819.81;2098835;28;20419;-79
2023/07/26 03:28:44;;;;;;;4.38;3.30;;;;;;;9.53;100.00;92815.31;2106665;28;20023;-81
2023/07/26 03:29:45;;;;;;;7.85;3.25;;;;;;;9.62;100.00;92822.75;2095750;28;20441;-81
2023/07/26 03:30:46;;;;;;;5.63;2.92;;;;;;;9.62;100.00;92822.75;2104339;28;20085;-79
2023/07/26 03:31:47;;;;;;;3.40;3.20;;;;;;;9.59;100.00;92819.00;2114751;28;20073;-81
2023/07/26 03:32:48;;;;;;;8.00;3.22;;;;;;;9.54;100.00;92822.16;2106974;28;20110;-81
2023/07/26 03:33:49;;;;;;;3.65;3.08;;;;;;;9.55;100.00;92814.91;2109983;28;20027;-81
2023/07/26 03:34:50;;;;;;;4.38;3.17;;;;;;;9.55;100.00;92823.66;2115284;28;20028;-80
2023/07/26 03:35:52;;;;;;;3.40;3.10;;;;;;;9.51;100.00;92822.97;2099834;28;20474;-80
2023/07/26 03:36:53;;;;;;;5.80;3.22;;;;;;;9.54;100.00;92813.41;2112704;28;20020;-80
2023/07/26 03:37:54;;;;;;;5.97;3.42;;;;;;;9.56;100.00;92827.06;2090140;28;20020;-81
2023/07/26 03:38:54;;;;;;;6.05;3.08;;;;;;;9.57;100.00;92818.66;2098310;28;20075;-83
2023/07/26 03:39:55;;;;;;;4.80;3.42;;;;;;;9.65;100.00;92815.81;2106899;28;20444;-81
2023/07/26 03:40:56;;;;;;;5.10;3.40;;;;;;;9.91;100.00;92822.06;2093989;28;20113;-80
2023/07/26 03:41:57;;;;;;;4.05;3.05;;;;;;;9.89;100.00;92829.75;2102076;28;20016;-81
2023/07/26 03:42:58;;;;;;;4.40;3.30;;;;;;;9.80;100.00;92822.34;2111493;28;20406;-81
2023/07/26 03:43:59;;;;;;;3.45;3.15;;;;;;;9.76;100.00;92827.00;2108685;28;20031;-82
2023/07/26 03:45:00;;;;;;;3.65;3.15;;;;;;;9.70;100.00;92824.09;2098426;28;20024;-81
2023/07/26 03:46:01;;;;;;;5.60;3.20;;;;;;;9.66;100.00;92825.31;2090211;28;20121;-81
2023/07/26 03:47:02;;;;;;;4.25;3.35;;;;;;;9.51;100.00;92830.25;2083292;28;20029;-81
2023/07/26 03:48:03;;;;;;;3.95;3.35;;;;;;;9.57;100.00;92824.00;2090190;28;20057;-83
2023/07/26 03:49:04;;;;;;;5.00;3.10;;;;;;;9.56;100.00;92825.16;2104212;28;20008;-81
2023/07/26 03:50:06;;;;;;;4.85;3.70;;;;;;;9.53;100.00;92825.25;2107188;28;20020;-83
2023/07/26 03:51:07;;;;;;;3.55;3.10;;;;;;;9.51;100.00;92822.97;2098539;28;20028;-83
2023/07/26 03:52:08;;;;;;;4.90;3.58;;;;;;;9.55;100.00;92826.31;2086292;28;20065;-80
2023/07/26 03:53:09;;;;;;;4.22;3.60;;;;;;;9.46;100.00;92825.41;2098214;28;20012;-82
2023/07/26 03:54:10;;;;;;;6.28;3.60;;;;;;;9.54;100.00;92824.81;2105436;28;20046;-80
2023/07/26 03:55:11;;;;;;;4.18;3.42;;;;;;;9.47;100.00;92826.91;2089975;28;20385;-81
2023/07/26 03:56:12;;;;;;;3.47;3.17;;;;;;;9.34;100.00;92826.78;2081914;28;20025;-80
2023/07/26 03:57:13;;;;;;;3.72;3.42;;;;;;;9.34;100.00;92824.13;2102334;28;20024;-81
2023/07/26 03:58:14;;;;;;;4.28;3.17;;;;;;;9.37;100.00;92820.63;2109631;28;20052;-80
2023/07/26 03:59:15;;;;;;;5.80;3.60;;;;;;;9.52;100.00;92823.72;2114804;28;20026;-81
2023/07/26 04:00:16;;;;;;;8.00;3.72;;;;;;;9.48;100.00;92833.72;2106538;28;20035;-81
2023/07/26 04:01:17;;;;;;;4.10;3.75;;;;;;;9.48;100.00;92826.50;2098382;28;20629;-80
2023/07/26 04:02:18;;;;;;;6.30;3.65;;;;;;;9.45;100.00;92830.00;2097901;28;20070;-82
2023/07/26 04:03:19;;;;;;;4.40;3.83;;;;;;;9.45;100.00;92830.00;2101985;28;20020;-79
2023/07/26 04:04:20;;;;;;;5.78;3.63;;;;;;;9.39;100.00;92833.56;2097704;28;20601;-82
2023/07/26 04:05:21;;;;;;;3.90;3.60;;;;;;;9.44;100.00;92833.06;2091821;28;20462;-82
2023/07/26 04:06:22;;;;;;;3.58;3.28;;;;;;;9.38;100.00;92830.13;2089787;28;20466;-80
2023/07/26 04:07:23;;;;;;;4.68;3.40;;;;;;;9.41;100.00;92834.66;2089603;28;20442;-82
2023/07/26 04:08:24;;;;;;;3.55;3.13;;;;;;;9.35;100.00;92825.66;2100660;28;20024;-80
2023/07/26 04:09:25;;;;;;;3.78;3.45;;;;;;;9.40;100.00;92827.81;2101407;28;20062;-81
2023/07/26 04:10:26;;;;;;;4.43;3.38;;;;;;;9.37;100.00;92825.97;2097816;28;20036;-80
2023/07/26 04:11:27;;;;;;;4.05;3.35;;;;;;;9.27;100.00;92830.38;2094493;28;20048;-81
2023/07/26 04:12:28;;;;;;;4.45;3.55;;;;;;;9.28;100.00;92831.13;2096356;28;20029;-80
2023/07/26 04:13:29;;;;;;;5.18;3.90;;;;;;;9.19;100.00;92839.69;2097764;28;20024;-79
2023/07/26 04:14:30;;;;;;;7.07;3.25;;;;;;;9.26;100.00;92838.78;2098113;28;20082;-81
2023/07/26 04:15:31;;;;;;;4.43;3.55;;;;;;;9.26;100.00;92828.09;2106195;28;20020;-80
2023/07/26 04:16:32;;;;;;;4.28;3.33;;;;;;;9.27;100.00;92829.63;2098329;28;20103;-82
2023/07/26 04:17:33;;;;;;;4.82;3.50;;;;;;;9.19;100.00;92831.69;2104870;28;20085;-80
2023/07/26 04:18:34;;;;;;;4.93;3.50;;;;;;;9.22;100.00;92838.09;2097296;28;20020;-80
2023/07/26 04:19:35;;;;;;;4.00;3.05;;;;;;;9.26;100.00;92831.56;2106288;28;20107;-80
2023/07/26 04:20:36;;;;;;;4.60;3.10;;;;;;;9.23;100.00;92828.94;2123012;27;20030;-79
2023/07/26 04:21:37;;;;;;;5.90;3.15;;;;;;;9.16;100.00;92842.44;2114998;28;20020;-80
2023/07/26 04:22:38;;;;;;;5.18;3.40;;;;;;;9.21;100.00;92833.94;2106024;28;20074;-79
2023/07/26 04:23:39;;;;;;;3.70;3.28;;;;;;;9.20;100.00;92835.84;2106387;28;20334;-80
2023/07/26 04:24:44;;;;;;;7.75;3.17;;;;;;;9.15;100.00;92839.00;2104964;28;20023;-81
2023/07/26 04:25:50;;;;;;;4.40;2.88;;;;;;;9.16;100.00;92834.44;2106849;28;20601;-79
2023/07/26 04:26:52;;;;;;;3.70;3.40;;;;;;;9.20;100.00;92843.09;2106866;28;20033;-81
2023/07/26 04:27:53;;;;;;;7.93;3.28;;;;;;;9.28;100.00;92841.78;2098218;28;20070;-81
2023/07/26 04:28:54;;;;;;;4.82;3.28;;;;;;;9.27;100.00;92843.72;2101412;28;20113;-82
2023/07/26 04:29:55;;;;;;;5.97;3.30;;;;;;;9.26;100.00;92847.56;2101600;28;20020;-80
2023/07/26 04:30:56;;;;;;;5.68;3.63;;;;;;;9.31;100.00;92841.72;2103690;28;20024;-81
2023/07/26 04:31:57;;;;;;;7.30;3.38;;;;;;;9.31;100.00;92849.72;2104643;28;20023;-80
2023/07/26 04:32:58;;;;;;;4.82;3.55;;;;;;;9.26;100.00;92847.56;2096813;28;20505;-81
2023/07/26 04:33:59;;;;;;;7.80;3.40;;;;;;;9.25;100.00;92855.94;2094559;28;20020;-81
2023/07/26 04:35:00;;;;;;;4.18;3.22;;;;;;;9.23;100.00;92847.63;2106853;28;20035;-80
2023/07/26 04:36:01;;;;;;;5.45;3.20;;;;;;;9.21;100.00;92845.34;2113825;28;20455;-81
2023/07/26 04:37:02;;;;;;;3.30;3.00;;;;;;;9.14;100.00;92850.09;2107254;28;20028;-80
2023/07/26 04:38:03;;;;;;;4.93;2.95;;;;;;;9.23;100.00;92840.38;2114627;27;20396;-79
2023/07/26 04:39:04;;;;;;;3.45;3.15;;;;;;;9.24;100.00;92841.88;2101229;28;20115;-83
2023/07/26 04:40:06;;;;;;;4.05;3.00;;;;;;;9.26;100.00;92846.78;2081429;28;20421;-79
2023/07/26 04:41:08;;;;;;;3.75;3.30;;;;;;;9.29;100.00;92848.63;2086055;28;20080;-81
2023/07/26 04:42:09;;;;;;;4.15;3.15;;;;;;;9.41;100.00;92844.56;2105999;28;20027;-82
2023/07/26 04:43:10;;;;;;;3.25;3.00;;;;;;;9.43;100.00;92848.31;2106342;28;20543;-80
2023/07/26 04:44:11;;;;;;;4.88;2.75;;;;;;;9.43;100.00;92847.56;2093264;28;20029;-80
2023/07/26 04:45:12;;;;;;;9.20;2.95;;;;;;;9.24;100.00;92849.88;2098141;28;20060;-79
2023/07/26 04:46:16;;;;;;;4.15;2.63;;;;;;;9.26;100.00;92846.78;2101465;28;20020;-79
2023/07/26 04:47:18;;;;;;;3.45;3.10;;;;;;;9.22;100.00;92851.44;2109225;28;20019;-81
2023/07/26 04:48:20;;;;;;;3.20;2.78;;;;;;;9.23;100.00;92855.63;2115269;28;20031;-82